Time;durP1;ratioP1;P1;durP2;ratioP2;P2;SDS_P1;SDS_P2;PMS_P1;PMS_P2;Temp;Humidity;BMP_temperature;BMP_pressure;BME280_temperature;BME280_humidity;BME280_pressure;Samples;Min_cycle;Max_cycle;Signal;HPM_P1;HPM_P2
2021/12/04 00:00:13;;;;;;;1.52;0.80;;;21.80;46.90;;;;;;5083932;28;20536;-75
2021/12/04 00:02:39;;;;;;;1.05;0.80;;;21.80;46.90;;;;;;5084513;28;20056;-75
2021/12/04 00:05:06;;;;;;;0.90;0.70;;;21.80;46.90;;;;;;5046208;28;20053;-75
2021/12/04 00:07:35;;;;;;;0.70;0.70;;;21.80;46.90;;;;;;5080923;28;20040;-75
2021/12/04 00:10:03;;;;;;;0.88;0.73;;;21.80;46.90;;;;;;5085690;28;20557;-74
2021/12/04 00:12:31;;;;;;;1.05;0.85;;;21.80;46.90;;;;;;5067511;28;20032;-75
2021/12/04 00:14:57;;;;;;;1.15;0.90;;;21.80;46.80;;;;;;5075153;28;20043;-74
2021/12/04 00:17:23;;;;;;;1.00;0.80;;;21.80;46.80;;;;;;5066702;28;20066;-74
2021/12/04 00:19:49;;;;;;;1.98;0.80;;;21.80;46.80;;;;;;5084359;28;20393;-75
2021/12/04 00:22:14;;;;;;;1.33;1.02;;;21.80;46.80;;;;;;5067912;28;20051;-75
2021/12/04 00:24:40;;;;;;;1.02;0.80;;;21.80;46.80;;;;;;5067317;28;20093;-74
2021/12/04 00:27:06;;;;;;;1.38;0.70;;;21.80;46.80;;;;;;5068076;28;20051;-74
2021/12/04 00:29:32;;;;;;;1.45;1.05;;;21.80;46.80;;;;;;5065649;28;21120;-74
2021/12/04 00:32:01;;;;;;;1.17;0.82;;;21.80;46.80;;;;;;5067296;28;20048;-75
2021/12/04 00:34:28;;;;;;;1.42;0.90;;;21.80;46.80;;;;;;5064898;28;20083;-75
2021/12/04 00:37:08;;;;;;;1.20;0.90;;;21.80;46.70;;;;;;5067015;28;20125;-77
2021/12/04 00:50:32;;;;;;;1.00;0.70;;;21.80;46.70;;;;;;5087294;28;20044;-75
2021/12/04 00:52:57;;;;;;;1.38;0.90;;;21.80;46.70;;;;;;5073727;28;20493;-75
2021/12/04 00:55:23;;;;;;;1.00;0.85;;;21.80;46.70;;;;;;5069766;28;20036;-74
2021/12/04 00:57:48;;;;;;;0.95;0.80;;;21.80;46.70;;;;;;5072213;28;20044;-75
2021/12/04 01:00:14;;;;;;;0.80;0.70;;;21.80;46.70;;;;;;5076087;28;20047;-74
2021/12/04 01:02:42;;;;;;;1.00;0.80;;;21.80;46.70;;;;;;5088300;28;20090;-74
2021/12/04 01:05:09;;;;;;;1.02;0.82;;;21.80;46.60;;;;;;5079128;28;20052;-75
2021/12/04 01:07:35;;;;;;;1.13;0.90;;;21.80;46.70;;;;;;5071968;28;20048;-76
2021/12/04 01:10:01;;;;;;;1.35;0.90;;;21.70;46.60;;;;;;5066847;28;20044;-75
2021/12/04 01:12:27;;;;;;;1.17;0.88;;;21.80;46.70;;;;;;5083503;28;20039;-73
2021/12/04 01:14:52;;;;;;;2.38;0.93;;;21.70;46.60;;;;;;5061883;28;20437;-73
2021/12/04 01:17:18;;;;;;;1.20;0.90;;;21.80;46.60;;;;;;5070334;28;20126;-76
2021/12/04 01:19:45;;;;;;;3.45;1.00;;;21.80;46.50;;;;;;5087926;28;20135;-74
2021/12/04 01:22:11;;;;;;;3.10;1.00;;;21.70;46.40;;;;;;5072800;28;20079;-76
2021/12/04 01:24:36;;;;;;;1.58;0.90;;;21.80;46.30;;;;;;5069091;28;20052;-75
2021/12/04 01:27:02;;;;;;;1.50;1.08;;;21.70;46.10;;;;;;5060885;28;20052;-75
2021/12/04 01:29:28;;;;;;;1.80;1.05;;;21.70;46.20;;;;;;5088426;28;20044;-74
2021/12/04 01:31:53;;;;;;;1.10;1.00;;;21.70;46.20;;;;;;5085992;28;20058;-73
2021/12/04 01:34:19;;;;;;;2.30;1.00;;;21.70;46.20;;;;;;5068162;28;20048;-74
2021/12/04 01:36:44;;;;;;;1.33;0.90;;;21.70;46.20;;;;;;5070189;28;20047;-74
2021/12/04 01:39:11;;;;;;;1.27;1.10;;;21.70;46.20;;;;;;5087844;28;20457;-74
2021/12/04 01:41:37;;;;;;;1.63;1.00;;;21.80;46.30;;;;;;5088328;28;20047;-75
2021/12/04 01:44:05;;;;;;;1.70;0.98;;;21.80;46.30;;;;;;5079669;28;20086;-74
2021/12/04 01:46:31;;;;;;;3.50;1.10;;;21.80;46.30;;;;;;5068539;28;20466;-75
2021/12/04 01:48:57;;;;;;;3.08;0.80;;;21.80;46.30;;;;;;5083449;28;20101;-74
2021/12/04 01:51:23;;;;;;;0.80;0.80;;;21.70;46.20;;;;;;5070328;28;20043;-74
2021/12/04 01:53:49;;;;;;;2.05;0.80;;;21.80;46.30;;;;;;5086693;28;20040;-74
2021/12/04 01:56:16;;;;;;;2.08;1.00;;;21.80;46.40;;;;;;5071313;28;20531;-75
2021/12/04 01:58:43;;;;;;;1.83;1.08;;;21.80;46.30;;;;;;5069576;28;20066;-74
2021/12/04 02:01:09;;;;;;;1.35;1.02;;;21.80;46.30;;;;;;5086488;28;20043;-74
2021/12/04 02:03:35;;;;;;;1.20;1.00;;;21.80;46.30;;;;;;5049457;28;20044;-74
2021/12/04 02:06:01;;;;;;;1.55;1.00;;;21.80;46.30;;;;;;5061640;28;20096;-74
2021/12/04 02:08:27;;;;;;;1.80;1.00;;;21.80;46.30;;;;;;5077698;28;20064;-75
2021/12/04 02:10:56;;;;;;;1.70;0.90;;;21.80;46.30;;;;;;5088197;28;20640;-73
2021/12/04 02:13:21;;;;;;;2.50;1.00;;;21.80;46.40;;;;;;5066895;28;20074;-74
2021/12/04 02:15:48;;;;;;;1.30;1.00;;;21.80;46.30;;;;;;5058177;28;20058;-74
2021/12/04 02:18:14;;;;;;;2.33;1.20;;;21.70;46.20;;;;;;5070821;28;20515;-74
2021/12/04 02:20:41;;;;;;;1.20;1.05;;;21.80;46.20;;;;;;5060215;28;20055;-74
2021/12/04 02:23:08;;;;;;;1.77;1.10;;;21.80;46.20;;;;;;5063404;28;20056;-74
2021/12/04 02:25:34;;;;;;;1.90;1.08;;;21.80;46.20;;;;;;5084466;28;20506;-74
2021/12/04 02:28:01;;;;;;;1.33;1.10;;;21.70;46.20;;;;;;5086844;28;20047;-76
2021/12/04 02:30:32;;;;;;;2.67;1.08;;;21.80;46.20;;;;;;5087688;28;20487;-74
2021/12/04 02:32:58;;;;;;;1.73;0.98;;;21.70;46.10;;;;;;5086257;28;20068;-74
2021/12/04 02:35:25;;;;;;;1.00;0.90;;;21.80;46.30;;;;;;5037836;28;20040;-75
2021/12/04 02:37:52;;;;;;;1.92;1.10;;;21.80;46.20;;;;;;5087332;28;20043;-76
2021/12/04 02:40:22;;;;;;;1.58;1.00;;;21.80;46.20;;;;;;5068172;28;20056;-74
2021/12/04 02:42:49;;;;;;;1.63;0.98;;;21.80;46.20;;;;;;5053472;28;20040;-76
2021/12/04 02:45:15;;;;;;;1.25;1.00;;;21.80;46.20;;;;;;5084963;28;20044;-74
2021/12/04 02:47:41;;;;;;;1.05;0.90;;;21.70;46.10;;;;;;5066804;28;20036;-75
2021/12/04 02:50:10;;;;;;;1.10;0.80;;;21.80;46.20;;;;;;5061731;28;20384;-75
2021/12/04 02:52:35;;;;;;;;;;;21.70;46.20;;;;;;5067099;28;20039;-75
2021/12/04 02:55:03;;;;;;;1.23;0.90;;;21.80;46.20;;;;;;5048632;28;19955;-75
2021/12/04 02:57:28;;;;;;;1.67;0.73;;;21.70;46.10;;;;;;5079005;28;20051;-75
2021/12/04 02:59:55;;;;;;;1.08;0.88;;;21.80;46.20;;;;;;5069319;28;20047;-75
2021/12/04 03:02:22;;;;;;;1.33;1.00;;;21.70;46.10;;;;;;5084615;28;20800;-75
2021/12/04 03:05:00;;;;;;;1.05;0.95;;;21.80;46.20;;;;;;5064611;28;20048;-75
2021/12/04 03:07:26;;;;;;;1.03;0.93;;;21.80;46.20;;;;;;5077023;28;20402;-74
2021/12/04 03:09:53;;;;;;;1.15;0.85;;;21.70;46.10;;;;;;5068377;28;20044;-74
2021/12/04 03:12:20;;;;;;;1.10;0.80;;;21.70;46.20;;;;;;5087016;28;20498;-74
2021/12/04 03:14:46;;;;;;;1.30;1.00;;;21.70;46.10;;;;;;5066553;28;20516;-74
2021/12/04 03:17:14;;;;;;;1.17;0.90;;;21.80;46.20;;;;;;5086123;28;20151;-74
2021/12/04 03:19:40;;;;;;;1.20;0.90;;;21.70;46.10;;;;;;5067192;28;20068;-75
2021/12/04 03:22:07;;;;;;;0.85;0.77;;;21.70;46.20;;;;;;5085859;28;20174;-74
2021/12/04 03:24:36;;;;;;;1.02;0.90;;;21.70;46.10;;;;;;5060310;28;20045;-74
2021/12/04 03:27:02;;;;;;;1.20;0.90;;;21.70;46.20;;;;;;5077578;28;20044;-74
2021/12/04 03:29:30;;;;;;;1.10;0.70;;;21.70;46.10;;;;;;5086535;28;20048;-75
2021/12/04 03:42:36;;;;;;;1.27;0.90;;;21.70;46.10;;;;;;5066631;28;21412;-74
2021/12/04 03:45:05;;;;;;;0.70;0.70;;;21.70;46.10;;;;;;5072708;28;20036;-74
2021/12/04 03:47:30;;;;;;;0.98;0.63;;;21.80;46.10;;;;;;5071245;28;20488;-74
2021/12/04 03:49:57;;;;;;;1.00;0.80;;;21.70;46.10;;;;;;5051404;28;20043;-74
2021/12/04 03:52:23;;;;;;;0.85;0.73;;;21.70;46.10;;;;;;5050457;28;20052;-74
2021/12/04 03:54:49;;;;;;;0.70;0.68;;;21.70;46.10;;;;;;5074258;28;20032;-74
2021/12/04 03:57:14;;;;;;;0.98;0.82;;;21.70;46.10;;;;;;5085193;28;20433;-74
2021/12/04 03:59:44;;;;;;;0.82;0.70;;;21.70;46.10;;;;;;5068336;28;20154;-74
2021/12/04 04:02:12;;;;;;;0.90;0.85;;;21.70;46.10;;;;;;5072525;28;20063;-75
2021/12/04 04:04:38;;;;;;;1.05;0.80;;;21.80;46.10;;;;;;5068109;28;20055;-74
2021/12/04 04:07:04;;;;;;;0.90;0.70;;;21.70;46.10;;;;;;5076433;28;20080;-74
2021/12/04 04:09:30;;;;;;;0.77;0.60;;;21.80;46.20;;;;;;5084740;28;20039;-74
2021/12/04 04:11:57;;;;;;;1.80;0.85;;;21.70;46.10;;;;;;5066693;28;20051;-75
2021/12/04 04:14:24;;;;;;;0.82;0.77;;;21.70;46.20;;;;;;5066394;28;20051;-73
2021/12/04 04:16:53;;;;;;;0.77;0.75;;;21.70;46.10;;;;;;5085145;28;20427;-74
2021/12/04 04:19:18;;;;;;;1.23;0.70;;;21.80;46.20;;;;;;5065021;28;20409;-75
2021/12/04 04:21:44;;;;;;;1.00;0.90;;;21.80;46.20;;;;;;5086664;28;20074;-75
2021/12/04 04:24:11;;;;;;;1.35;0.80;;;21.70;46.20;;;;;;5066156;28;20631;-74
2021/12/04 04:26:38;;;;;;;0.95;0.70;;;21.80;46.90;;;;;;5085549;28;20044;-74
2021/12/04 04:29:04;;;;;;;0.80;0.63;;;21.80;46.20;;;;;;5084887;28;20115;-74
2021/12/04 04:31:31;;;;;;;0.70;0.70;;;21.80;46.20;;;;;;5050528;28;20040;-74
2021/12/04 04:34:03;;;;;;;0.82;0.68;;;21.80;46.20;;;;;;5065889;28;20573;-73
2021/12/04 04:39:26;;;;;;;1.00;0.90;;;21.80;46.20;;;;;;5066869;28;20499;-74
2021/12/04 04:58:39;;;;;;;1.02;0.80;;;21.70;46.00;;;;;;5083375;28;20056;-75
2021/12/04 05:14:35;;;;;;;0.70;0.70;;;21.80;46.00;;;;;;5068286;28;20044;-74
2021/12/04 05:17:14;;;;;;;0.82;0.60;;;21.70;46.00;;;;;;5067038;28;20051;-75
2021/12/04 05:22:07;;;;;;;0.88;0.63;;;21.70;46.00;;;;;;5067768;28;20051;-76
2021/12/04 05:24:33;;;;;;;1.30;0.70;;;21.70;46.00;;;;;;5082961;28;20134;-74
2021/12/04 05:26:58;;;;;;;0.95;0.70;;;21.70;46.10;;;;;;5071329;28;20045;-74
2021/12/04 05:29:24;;;;;;;0.90;0.77;;;21.70;46.00;;;;;;5048165;28;20036;-73
2021/12/04 05:31:50;;;;;;;0.88;0.60;;;21.80;46.00;;;;;;5063451;28;20045;-74
2021/12/04 05:34:16;;;;;;;1.60;0.70;;;21.70;46.00;;;;;;5051244;28;20044;-75
2021/12/04 05:36:42;;;;;;;1.13;0.70;;;21.70;46.00;;;;;;5068044;28;20127;-75
2021/12/04 05:39:09;;;;;;;0.80;0.70;;;21.70;45.90;;;;;;5070148;28;20483;-75
2021/12/04 05:41:34;;;;;;;0.75;0.70;;;21.70;45.90;;;;;;5087742;28;20040;-74
2021/12/04 05:44:05;;;;;;;1.65;0.70;;;21.70;45.90;;;;;;5086971;28;20048;-74
2021/12/04 05:46:37;;;;;;;1.10;0.80;;;21.70;46.00;;;;;;5083963;28;20044;-75
2021/12/04 05:49:20;;;;;;;0.90;0.80;;;21.70;46.00;;;;;;5085725;28;20393;-74
2021/12/04 05:54:48;;;;;;;1.27;0.68;;;21.70;45.90;;;;;;5068109;28;20482;-74
2021/12/04 05:57:14;;;;;;;0.73;0.73;;;21.70;45.90;;;;;;5068994;28;20086;-74
2021/12/04 05:59:40;;;;;;;0.80;0.68;;;21.70;45.90;;;;;;5056819;28;20040;-75
2021/12/04 06:02:05;;;;;;;1.65;0.77;;;21.70;45.90;;;;;;5068991;28;20120;-74
2021/12/04 06:04:31;;;;;;;0.98;0.52;;;21.70;45.90;;;;;;5087316;28;20047;-74
2021/12/04 06:06:57;;;;;;;0.88;0.52;;;21.70;45.90;;;;;;5070391;28;20036;-75
2021/12/04 06:09:23;;;;;;;0.93;0.57;;;21.70;45.90;;;;;;5065071;28;20125;-75
2021/12/04 06:11:48;;;;;;;1.15;0.60;;;21.70;45.90;;;;;;5067386;28;20190;-74
2021/12/04 06:14:14;;;;;;;1.08;0.70;;;21.70;45.90;;;;;;5083237;28;20134;-74
2021/12/04 06:16:40;;;;;;;0.40;0.40;;;21.70;45.90;;;;;;5080772;28;20170;-74
2021/12/04 06:19:13;;;;;;;1.15;0.70;;;21.70;45.90;;;;;;5069082;28;21769;-74
2021/12/04 06:24:23;;;;;;;0.60;0.60;;;21.70;45.90;;;;;;5085842;28;20059;-75
2021/12/04 06:26:48;;;;;;;0.75;0.55;;;21.70;45.90;;;;;;5085536;28;20036;-75
2021/12/04 06:29:14;;;;;;;0.60;0.60;;;21.70;45.90;;;;;;5084160;28;20135;-74
2021/12/04 06:31:40;;;;;;;0.85;0.70;;;21.70;45.90;;;;;;5087869;28;20063;-75
2021/12/04 06:34:05;;;;;;;1.05;0.70;;;21.70;45.90;;;;;;5064528;28;20620;-74
2021/12/04 06:36:31;;;;;;;1.27;0.70;;;21.70;45.90;;;;;;5083098;28;20466;-75
2021/12/04 06:38:57;;;;;;;0.93;0.68;;;21.70;45.80;;;;;;5086403;28;20059;-73
2021/12/04 06:41:22;;;;;;;0.90;0.60;;;21.70;45.90;;;;;;5079039;28;20036;-75
2021/12/04 06:43:50;;;;;;;1.63;0.70;;;21.70;45.90;;;;;;5069736;28;20048;-80
2021/12/04 06:46:18;;;;;;;1.10;0.70;;;21.70;46.70;;;;;;5080522;28;20040;-79
2021/12/04 06:48:57;;;;;;;0.90;0.73;;;21.70;46.10;;;;;;5069238;28;20574;-80
2021/12/04 06:54:05;;;;;;;1.42;0.80;;;21.70;46.20;;;;;;5085714;28;20052;-81
2021/12/04 06:56:34;;;;;;;0.95;0.60;;;21.80;46.20;;;;;;5087721;28;20111;-75
2021/12/04 06:59:06;;;;;;;0.93;0.68;;;21.70;46.20;;;;;;5067249;28;20287;-76
2021/12/04 07:01:31;;;;;;;0.80;0.63;;;21.70;46.20;;;;;;5069232;28;20070;-74
2021/12/04 07:03:57;;;;;;;3.72;0.90;;;21.70;46.20;;;;;;5081557;28;20040;-76
2021/12/04 07:06:23;;;;;;;1.52;0.70;;;21.70;46.20;;;;;;5081521;28;20043;-74
2021/12/04 07:08:48;;;;;;;0.57;0.55;;;21.70;46.20;;;;;;5083545;28;20395;-72
2021/12/04 07:11:14;;;;;;;6.25;0.90;;;21.70;46.30;;;;;;5072366;28;20024;-77
2021/12/04 07:13:40;;;;;;;1.70;0.80;;;21.70;46.50;;;;;;5058814;28;20559;-79
2021/12/04 07:16:08;;;;;;;2.72;0.80;;;21.70;46.60;;;;;;5049794;28;20036;-76
2021/12/04 07:18:35;;;;;;;1.23;0.80;;;21.70;46.60;;;;;;5086058;28;20143;-78
2021/12/04 07:21:00;;;;;;;0.90;0.70;;;21.70;46.60;;;;;;5078661;28;20072;-78
2021/12/04 07:23:26;;;;;;;2.58;0.70;;;21.70;46.60;;;;;;5072501;28;20075;-80
2021/12/04 07:26:37;;;;;;;0.82;0.60;;;21.70;46.70;;;;;;5073033;28;20032;-77
2021/12/04 07:28:57;;;;;;;0.77;0.60;;;21.70;46.60;;;;;;5052244;28;20058;-77
2021/12/04 07:31:23;;;;;;;1.17;0.80;;;21.70;46.70;;;;;;5067023;28;20039;-78
2021/12/04 07:33:50;;;;;;;6.32;0.80;;;21.70;46.70;;;;;;5082041;28;20105;-76
2021/12/04 07:36:16;;;;;;;1.20;0.90;;;21.70;46.90;;;;;;5042595;28;20044;-76
2021/12/04 07:38:43;;;;;;;3.33;0.70;;;21.70;46.80;;;;;;5067319;28;20406;-75
2021/12/04 07:41:10;;;;;;;1.00;0.73;;;21.70;46.80;;;;;;5065040;28;20209;-74
2021/12/04 07:44:00;;;;;;;1.55;0.60;;;21.70;46.80;;;;;;5082730;28;20866;-78
2021/12/04 07:46:54;;;;;;;1.00;0.90;;;21.70;46.80;;;;;;4962302;28;20069;-78
2021/12/04 07:50:14;;;;;;;1.55;0.70;;;21.70;46.60;;;;;;4978722;28;20134;-78
2021/12/04 07:53:18;;;;;;;2.95;0.90;;;21.70;46.50;;;;;;4975438;28;20056;-73
2021/12/04 07:55:44;;;;;;;1.48;0.80;;;21.70;46.50;;;;;;4977675;28;20291;-74
2021/12/04 07:58:14;;;;;;;3.35;0.80;;;21.70;46.60;;;;;;5038266;28;20055;-77
2021/12/04 08:00:43;;;;;;;1.45;0.75;;;21.60;46.50;;;;;;5066929;28;20040;-76
2021/12/04 08:03:09;;;;;;;1.55;0.80;;;21.70;46.70;;;;;;5079516;28;20056;-73
2021/12/04 08:05:35;;;;;;;3.70;0.98;;;21.60;46.70;;;;;;5062615;28;20496;-72
2021/12/04 08:08:02;;;;;;;2.85;1.00;;;21.60;46.80;;;;;;5082250;28;20043;-75
2021/12/04 08:10:28;;;;;;;2.85;0.73;;;21.60;46.90;;;;;;5061329;28;20051;-78
2021/12/04 08:12:54;;;;;;;2.10;0.65;;;21.60;47.00;;;;;;5071175;28;20047;-75
2021/12/04 08:15:20;;;;;;;1.08;0.65;;;21.60;47.10;;;;;;5061059;28;20971;-73
2021/12/04 08:17:46;;;;;;;1.70;0.93;;;21.60;47.20;;;;;;5082700;28;20055;-77
2021/12/04 08:20:15;;;;;;;1.05;0.75;;;21.60;47.20;;;;;;5067441;28;20040;-75
2021/12/04 08:22:41;;;;;;;2.60;0.70;;;21.60;47.20;;;;;;5077128;28;20484;-76
2021/12/04 08:25:18;;;;;;;0.85;0.63;;;21.60;47.30;;;;;;5051015;28;20139;-76
2021/12/04 08:27:45;;;;;;;3.13;0.73;;;21.60;47.30;;;;;;5064966;28;20043;-76
2021/12/04 08:30:15;;;;;;;3.10;0.80;;;21.60;47.30;;;;;;5050188;28;20298;-75
2021/12/04 08:32:41;;;;;;;5.68;0.73;;;21.50;47.30;;;;;;5076644;28;20044;-74
2021/12/04 08:35:10;;;;;;;2.00;0.63;;;21.50;47.40;;;;;;5064399;28;20097;-76
2021/12/04 08:37:36;;;;;;;0.60;0.60;;;21.50;47.40;;;;;;5066901;28;20137;-79
2021/12/04 08:40:09;;;;;;;2.38;0.73;;;21.50;47.40;;;;;;5079486;28;20043;-79
2021/12/04 08:42:35;;;;;;;1.55;0.73;;;21.50;47.50;;;;;;5083709;28;20503;-80
2021/12/04 08:45:00;;;;;;;2.88;0.90;;;21.60;47.70;;;;;;5045346;28;20044;-78
2021/12/04 08:47:26;;;;;;;1.38;0.75;;;21.50;47.70;;;;;;5057495;28;20044;-76
2021/12/04 08:49:52;;;;;;;0.77;0.70;;;21.50;47.80;;;;;;5074031;28;20060;-77
2021/12/04 08:52:18;;;;;;;1.15;0.68;;;21.50;47.80;;;;;;5068620;28;20051;-80
2021/12/04 08:54:44;;;;;;;2.88;0.70;;;21.60;47.80;;;;;;5065073;28;20052;-79
2021/12/04 08:57:10;;;;;;;0.93;0.57;;;21.60;48.70;;;;;;5066634;28;20155;-80
2021/12/04 08:59:35;;;;;;;1.60;0.63;;;21.60;47.80;;;;;;5064963;28;20049;-77
2021/12/04 09:02:03;;;;;;;0.98;0.68;;;21.60;47.80;;;;;;5056987;28;20051;-79
2021/12/04 09:04:32;;;;;;;0.93;0.60;;;21.60;47.80;;;;;;5070427;28;20036;-77
2021/12/04 09:06:59;;;;;;;2.55;0.60;;;21.60;47.80;;;;;;5059397;28;20063;-74
2021/12/04 09:09:28;;;;;;;1.45;0.80;;;21.60;47.70;;;;;;5060542;28;20048;-74
2021/12/04 09:12:01;;;;;;;;;;;21.60;47.70;;;;;;5068507;28;20040;-75
2021/12/04 09:14:30;;;;;;;2.40;0.60;;;21.60;47.60;;;;;;5050118;28;19955;-75
2021/12/04 09:16:58;;;;;;;1.63;0.70;;;21.60;47.70;;;;;;5082985;28;20052;-75
2021/12/04 09:19:24;;;;;;;3.60;0.90;;;21.60;47.70;;;;;;5085961;28;20163;-74
2021/12/04 09:21:50;;;;;;;0.73;0.68;;;21.60;48.60;;;;;;5068631;28;20480;-75
2021/12/04 09:24:23;;;;;;;0.80;0.70;;;21.60;47.90;;;;;;5071372;28;20040;-76
2021/12/04 09:26:57;;;;;;;1.05;0.70;;;21.60;48.00;;;;;;5087691;28;20047;-77
2021/12/04 09:34:44;;;;;;;1.98;0.70;;;21.60;48.00;;;;;;5068343;28;21728;-76
2021/12/04 09:59:35;;;;;;;0.60;0.60;;;21.60;48.10;;;;;;5077636;28;20055;-75
2021/12/04 09:59:59;;;;;;;2.25;0.70;;;21.60;48.00;;;;;;5033404;28;20557;-75
2021/12/04 10:05:48;;;;;;;0.93;0.70;;;21.50;47.90;;;;;;5070851;28;20051;-76
2021/12/04 10:11:26;;;;;;;2.50;0.60;;;21.50;47.70;;;;;;5061771;28;20045;-75
2021/12/04 10:19:31;;;;;;;1.65;0.80;;;21.50;47.70;;;;;;5071347;28;20520;-75
2021/12/04 10:33:42;;;;;;;1.75;0.70;;;21.40;47.70;;;;;;5086424;28;20048;-75
2021/12/04 10:36:10;;;;;;;1.10;0.50;;;21.40;47.70;;;;;;5091717;28;20624;-75
2021/12/04 10:38:43;;;;;;;2.92;0.70;;;21.40;47.70;;;;;;5079356;28;20423;-75
2021/12/04 10:41:15;;;;;;;1.20;0.60;;;21.40;47.70;;;;;;5085297;28;20039;-75
2021/12/04 10:43:41;;;;;;;0.50;0.50;;;21.40;47.80;;;;;;5081126;28;20058;-75
2021/12/04 10:46:15;;;;;;;0.80;0.70;;;21.30;47.70;;;;;;5082035;28;20496;-75
2021/12/04 10:49:03;;;;;;;0.77;0.60;;;21.40;47.80;;;;;;5076641;28;20116;-74
2021/12/04 10:51:45;;;;;;;0.60;0.50;;;21.40;47.80;;;;;;5080817;28;20036;-74
2021/12/04 10:54:33;;;;;;;1.02;0.77;;;21.30;47.70;;;;;;5070006;28;20044;-74
2021/12/04 11:00:06;;;;;;;;;;;21.30;47.70;;;;;;5084036;28;20044;-75
2021/12/04 11:02:43;;;;;;;0.75;0.60;;;21.30;47.70;;;;;;5070421;28;19934;-75
2021/12/04 11:22:24;;;;;;;4.50;1.15;;;21.30;47.70;;;;;;5055091;28;20157;-74
2021/12/04 11:38:39;;;;;;;1.13;0.60;;;21.20;47.10;;;;;;5065665;28;20179;-74
2021/12/04 11:43:49;;;;;;;;;;;21.20;47.00;;;;;;5084170;28;20032;-74
2021/12/04 11:48:47;;;;;;;0.93;0.73;;;21.10;46.90;;;;;;5073213;28;20041;-73
2021/12/04 11:51:19;;;;;;;1.23;1.00;;;21.10;46.90;;;;;;5079650;28;20044;-79
2021/12/04 11:53:55;;;;;;;2.10;0.98;;;21.10;46.80;;;;;;5067878;28;20048;-78
2021/12/04 11:56:29;;;;;;;1.48;1.00;;;21.10;46.80;;;;;;5076508;28;20441;-77
2021/12/04 11:58:55;;;;;;;1.20;0.90;;;21.10;47.50;;;;;;5080513;28;20036;-76
2021/12/04 12:01:30;;;;;;;2.90;1.05;;;21.10;46.80;;;;;;5079932;28;20040;-76
2021/12/04 12:04:07;;;;;;;2.90;1.00;;;21.10;46.80;;;;;;5066793;28;20521;-78
2021/12/04 12:06:33;;;;;;;1.17;1.08;;;21.10;46.90;;;;;;5078271;28;20589;-76
2021/12/04 12:09:13;;;;;;;1.30;0.88;;;21.10;47.00;;;;;;5079580;28;20051;-75
2021/12/04 12:11:55;;;;;;;1.15;1.05;;;21.10;47.10;;;;;;5080678;28;20055;-77
2021/12/04 12:14:24;;;;;;;5.55;1.10;;;21.20;47.30;;;;;;5058148;28;20260;-76
2021/12/04 12:16:53;;;;;;;1.27;1.00;;;21.10;47.30;;;;;;5062556;28;20055;-76
2021/12/04 12:19:30;;;;;;;3.63;1.20;;;21.10;47.40;;;;;;5055289;28;20067;-77
2021/12/04 12:22:35;;;;;;;3.03;1.30;;;21.10;47.50;;;;;;5057208;28;20139;-77
2021/12/04 12:36:13;;;;;;;3.47;1.30;;;21.20;48.00;;;;;;5061186;28;20131;-77
2021/12/04 12:38:56;;;;;;;1.75;1.30;;;21.20;48.00;;;;;;5059635;28;20041;-76
2021/12/04 12:41:42;;;;;;;3.35;1.42;;;21.20;48.00;;;;;;5060670;28;20054;-73
2021/12/04 12:44:18;;;;;;;4.13;1.35;;;21.30;48.20;;;;;;5044525;28;20044;-77
2021/12/04 12:47:17;;;;;;;5.10;1.45;;;21.30;48.20;;;;;;5061419;28;20400;-77
2021/12/04 12:49:45;;;;;;;2.97;1.30;;;21.30;48.30;;;;;;5063396;28;20044;-76
2021/12/04 12:52:27;;;;;;;2.63;1.60;;;21.30;48.20;;;;;;5062336;28;20056;-80
2021/12/04 12:55:00;;;;;;;2.63;1.60;;;21.20;48.10;;;;;;5062704;28;20052;-78
2021/12/04 12:57:30;;;;;;;2.70;1.60;;;21.20;48.10;;;;;;5069922;28;20551;-78
2021/12/04 13:12:07;;;;;;;3.45;1.98;;;21.20;48.40;;;;;;5071547;28;20634;-77
2021/12/04 13:14:41;;;;;;;2.22;1.80;;;21.20;48.50;;;;;;5058120;28;20040;-76
2021/12/04 13:17:21;;;;;;;3.58;2.05;;;21.30;48.60;;;;;;5063424;28;20403;-76
2021/12/04 13:19:51;;;;;;;3.53;2.20;;;21.30;48.60;;;;;;5084209;28;20127;-79
2021/12/04 13:22:29;;;;;;;2.38;2.10;;;21.30;48.70;;;;;;5085877;28;20048;-79
2021/12/04 13:24:58;;;;;;;3.92;2.13;;;21.30;48.80;;;;;;5086934;28;20159;-78
2021/12/04 13:29:57;;;;;;;4.55;2.47;;;21.30;49.10;;;;;;5084415;28;20048;-80
2021/12/04 13:32:51;;;;;;;2.72;2.40;;;21.30;49.20;;;;;;5057165;28;20036;-78
2021/12/04 13:35:21;;;;;;;3.55;2.65;;;21.30;49.20;;;;;;5080735;28;20058;-82
2021/12/04 13:37:58;;;;;;;4.28;2.75;;;21.40;49.20;;;;;;5073538;28;20506;-79
2021/12/04 13:40:26;;;;;;;4.43;2.72;;;21.40;49.20;;;;;;5081442;28;20590;-77
2021/12/04 13:42:51;;;;;;;4.38;3.03;;;21.30;49.20;;;;;;5083222;28;20086;-77
2021/12/04 13:45:19;;;;;;;5.60;3.00;;;21.40;49.30;;;;;;5079395;28;20044;-78
2021/12/04 13:47:52;;;;;;;6.60;3.30;;;21.30;49.20;;;;;;5087468;28;20040;-77
2021/12/04 13:53:20;;;;;;;4.55;3.33;;;21.30;50.10;;;;;;5084605;28;20071;-77
2021/12/04 13:56:04;;;;;;;6.38;3.92;;;21.30;50.20;;;;;;5085089;28;20040;-75
2021/12/04 13:58:30;;;;;;;6.88;3.90;;;21.40;50.70;;;;;;5083620;28;20063;-76
2021/12/04 14:01:00;;;;;;;9.32;4.55;;;21.40;50.70;;;;;;5074862;28;20040;-75
2021/12/04 14:03:37;;;;;;;7.13;4.75;;;21.40;51.20;;;;;;5073268;28;20051;-78
2021/12/04 14:06:11;;;;;;;7.53;4.15;;;21.40;51.70;;;;;;5076940;28;20040;-77
2021/12/04 14:08:37;;;;;;;8.20;4.63;;;21.40;51.80;;;;;;5050843;28;20574;-77
2021/12/04 14:11:03;;;;;;;8.02;5.10;;;21.40;51.80;;;;;;5059185;28;20043;-78
2021/12/04 14:13:44;;;;;;;7.07;4.82;;;21.40;51.90;;;;;;5083723;28;20442;-75
2021/12/04 14:16:33;;;;;;;7.03;4.95;;;21.50;52.20;;;;;;5068289;28;20044;-75
2021/12/04 14:19:11;;;;;;;9.80;4.45;;;21.50;52.10;;;;;;5063579;28;20052;-76
2021/12/04 14:21:40;;;;;;;13.40;4.32;;;21.50;52.30;;;;;;5051210;28;20972;-77
2021/12/04 14:24:06;;;;;;;10.48;4.45;;;21.50;52.10;;;;;;5073419;28;20040;-75
2021/12/04 14:26:31;;;;;;;6.15;4.57;;;21.50;52.10;;;;;;5070642;28;20062;-76
2021/12/04 14:28:57;;;;;;;8.85;4.72;;;21.50;52.20;;;;;;5066990;28;20051;-76
2021/12/04 14:31:23;;;;;;;8.23;4.30;;;21.50;52.10;;;;;;5063975;28;20541;-76
2021/12/04 14:33:49;;;;;;;6.72;3.90;;;21.50;52.10;;;;;;5068570;28;20040;-76
2021/12/04 14:36:22;;;;;;;5.90;3.88;;;21.40;52.10;;;;;;5063588;28;20045;-77
2021/12/04 14:38:48;;;;;;;5.35;4.05;;;21.50;52.20;;;;;;5065670;28;20059;-78
2021/12/04 14:41:15;;;;;;;7.72;4.50;;;21.40;52.20;;;;;;5065056;28;20032;-76
2021/12/04 14:43:41;;;;;;;10.88;4.22;;;21.40;52.20;;;;;;5069388;28;20048;-78
2021/12/04 14:46:15;;;;;;;6.43;3.95;;;21.40;52.30;;;;;;5042911;28;20056;-77
2021/12/04 14:48:50;;;;;;;6.97;4.20;;;21.40;52.30;;;;;;5040128;28;20040;-77
2021/12/04 14:51:19;;;;;;;7.03;4.07;;;21.40;52.30;;;;;;5065445;28;20036;-74
2021/12/04 14:53:50;;;;;;;7.00;4.40;;;21.40;52.30;;;;;;5063795;28;20033;-76
2021/12/04 14:56:19;;;;;;;8.25;4.30;;;21.40;52.30;;;;;;5063070;28;20538;-73
2021/12/04 14:58:45;;;;;;;4.75;4.05;;;21.40;52.30;;;;;;5062814;28;20052;-72
2021/12/04 15:01:13;;;;;;;4.93;4.25;;;21.40;52.20;;;;;;5061441;28;20044;-72
2021/12/04 15:03:51;;;;;;;7.90;4.25;;;21.40;52.20;;;;;;5063741;28;20048;-74
2021/12/04 15:06:18;;;;;;;6.28;4.45;;;21.40;52.30;;;;;;5040128;28;20117;-73
2021/12/04 15:08:59;;;;;;;8.57;4.30;;;21.40;52.20;;;;;;5059653;28;20061;-75
2021/12/04 15:11:30;;;;;;;7.68;4.20;;;21.30;52.10;;;;;;5063074;28;20040;-76
2021/12/04 15:14:01;;;;;;;6.65;4.50;;;21.30;52.10;;;;;;5061645;28;20041;-76
2021/12/04 15:19:10;;;;;;;7.78;4.55;;;21.30;52.10;;;;;;5060861;28;20119;-75
2021/12/04 15:21:41;;;;;;;5.00;4.22;;;21.30;52.00;;;;;;5062538;28;20051;-77
2021/12/04 15:24:13;;;;;;;9.52;4.53;;;21.30;52.00;;;;;;5062558;28;20044;-75
2021/12/04 15:26:41;;;;;;;5.82;4.40;;;21.30;52.10;;;;;;5063023;28;20471;-76
2021/12/04 15:29:14;;;;;;;5.50;4.07;;;21.30;52.10;;;;;;5062374;28;20135;-76
2021/12/04 15:31:40;;;;;;;6.18;4.10;;;21.30;52.00;;;;;;5046511;28;20464;-75
2021/12/04 15:34:10;;;;;;;8.18;3.90;;;21.30;52.00;;;;;;5061267;28;20544;-74
2021/12/04 15:36:44;;;;;;;9.70;4.18;;;21.30;52.00;;;;;;5055130;28;20173;-76
2021/12/04 15:39:27;;;;;;;9.43;4.50;;;21.30;52.00;;;;;;5062416;28;20428;-78
2021/12/04 15:45:12;;;;;;;5.88;4.30;;;21.30;52.00;;;;;;5060859;28;20177;-77
2021/12/04 15:48:00;;;;;;;;;;;21.30;51.90;;;;;;5044164;28;20105;-72
2021/12/04 15:50:47;;;;;;;5.22;4.28;;;21.30;51.90;;;;;;5054229;28;19967;-75
2021/12/04 15:53:14;;;;;;;8.93;3.67;;;21.30;51.70;;;;;;5060722;28;20533;-76
2021/12/04 15:55:47;;;;;;;6.57;3.90;;;21.30;51.70;;;;;;5056775;28;20086;-73
2021/12/04 15:58:20;;;;;;;6.20;4.10;;;21.30;51.70;;;;;;5065966;28;20080;-71
2021/12/04 16:00:55;;;;;;;8.38;4.15;;;21.30;51.90;;;;;;5061499;28;20631;-73
2021/12/04 16:03:26;;;;;;;5.70;3.95;;;21.20;51.90;;;;;;5057629;28;20044;-78
2021/12/04 16:06:01;;;;;;;8.60;4.03;;;21.20;51.90;;;;;;5061779;28;20155;-71
2021/12/04 16:08:31;;;;;;;6.85;4.15;;;21.20;51.90;;;;;;5059332;28;20048;-71